OOCL Nagoya — VRFX8 — position and weather

sailwx.info

Track history (hours):
 
Tides and Currents Weather Stations Pressure Air Temp Water Temp Dewpoint Dewpoint Depression Visibility Wind Speed Wind Dir Waves Ship Positions

OOCL Nagoya

Last reported at 2016-May-04 03:33 UTC. Time now 2016-May-05 20:02 UTC.
Position N 22°09' E 113°50'.

Length 261 m; draft 12 m.

Type: Cargo ship. MMSI: 477627900.

Date/timePositionNaut miles runAvg speedWind from/ knotsBaromVisibWave heightAir tempDewpointWater temp
2016-May-04 03:33N 22°09' E 113°50'16 0.9
2016-May-03 10:13N 22°21' E 114°02'2 2.2
2016-May-03 09:18N 22°20' E 114°04'0 0.0
2016-May-03 08:30N 22°20' E 114°04'0 0.0
2016-May-03 06:30N 22°20' E 114°04'2 2.0
2016-May-03 05:33N 22°19' E 114°06'2 0.4
2016-May-03 00:22N 22°21' E 114°07'0 0.0
2016-May-02 23:22N 22°21' E 114°07'0 0.0
2016-May-02 20:28N 22°21' E 114°07'0 0.0
2016-May-02 19:33N 22°21' E 114°07'4 3.5
2016-May-02 18:33N 22°17' E 114°06'1110.2
2016-May-02 17:31N 22°09' E 114°13'1414.9
2016-May-02 16:33N 22°08' E 114°29'31114.8
2016-May-01 19:33N 22°32' E 120°04'1313.5
2016-May-01 18:33N 22°33' E 120°18'1 1.1
2016-May-01 17:15N 22°34' E 120°18'0 0.0
2016-May-01 16:33N 22°34' E 120°18'0 0.0
2016-May-01 15:33N 22°34' E 120°18'0 0.0
2016-May-01 14:33N 22°34' E 120°18'0 0.0
2016-May-01 13:33N 22°34' E 120°18'0 0.0
2016-May-01 11:33N 22°34' E 120°18'0 0.0
2016-May-01 10:03N 22°34' E 120°18'0 0.0
2016-May-01 09:31N 22°34' E 120°18'4 3.9
2016-May-01 08:33N 22°32' E 120°15'9 8.5
2016-May-01 07:33N 22°37' E 120°08'2 1.5
2016-May-01 06:33N 22°39' E 120°08'1211.6
2016-May-01 05:33N 22°48' E 120°01'49015.1
2016-Apr-29 21:05N 28°39' E 126°22'1418.8
2016-Apr-29 20:20N 28°46' E 126°36'52815.6
2016-Apr-28 10:33N 33°57' E 134°55'1616.2
2016-Apr-28 09:33N 34°13' E 134°57'1717.5
2016-Apr-28 08:33N 34°28' E 135°09'1312.5
2016-Apr-28 07:33N 34°40' E 135°15'0 0.2
2016-Apr-28 06:31N 34°39' E 135°15'0 0.0
2016-Apr-28 05:31N 34°39' E 135°15'0 0.0
2016-Apr-28 04:25N 34°39' E 135°15'0 0.0
2016-Apr-28 03:25N 34°39' E 135°15'0 0.0
2016-Apr-28 02:25N 34°39' E 135°15'0 0.0
2016-Apr-28 01:31N 34°39' E 135°15'0 0.0
2016-Apr-28 00:19N 34°39' E 135°15'0 0.0
2016-Apr-27 23:31N 34°39' E 135°15'1 0.9
2016-Apr-27 22:33N 34°39' E 135°16'10 9.5
2016-Apr-27 21:33N 34°30' E 135°11'1616.5
2016-Apr-27 20:33N 34°17' E 134°59'1211.9
2016-Apr-27 19:33N 34°05' E 134°59'1211.7
2016-Apr-27 18:33N 33°53' E 134°60'234 5.2
2016-Apr-25 21:24N 35°01' E 139°31'1618.9
2016-Apr-25 20:33N 35°11' E 139°46'1212.1
2016-Apr-25 19:33N 35°23' E 139°42'1212.2
2016-Apr-25 18:33N 35°34' E 139°49'3 2.5
2016-Apr-25 17:31N 35°36' E 139°47'0 0.0
2016-Apr-25 16:31N 35°36' E 139°47'0 0.0
2016-Apr-25 15:31N 35°36' E 139°47'0 0.0
2016-Apr-25 14:31N 35°36' E 139°47'0 0.0
2016-Apr-25 13:31N 35°36' E 139°47'0 0.0
2016-Apr-25 12:31N 35°36' E 139°47'0 0.0
2016-Apr-25 11:31N 35°36' E 139°47'0 0.0
2016-Apr-25 10:31N 35°36' E 139°47'0 0.0
2016-Apr-25 09:31N 35°36' E 139°47'0 0.0
2016-Apr-25 08:31N 35°36' E 139°47'0 0.0
2016-Apr-25 07:31N 35°36' E 139°47'0 0.0
2016-Apr-25 06:31N 35°36' E 139°47'0 0.0
2016-Apr-25 05:31N 35°36' E 139°47'0 0.0
2016-Apr-25 04:31N 35°36' E 139°47'0 0.4
2016-Apr-25 03:33N 35°36' E 139°47'9 9.2
2016-Apr-25 02:33N 35°27' E 139°49'1212.0
2016-Apr-25 01:33N 35°15' E 139°47'1110.7
2016-Apr-25 00:33N 35°04' E 139°45'1615.6
2016-Apr-24 23:33N 34°56' E 139°29'  
Track history (hours):
 
Tides and Currents Weather Stations Pressure Air Temp Water Temp Dewpoint Dewpoint Depression Visibility Wind Speed Wind Dir Waves Ship Positions

OOCL Nagoya

Last reported at 2016-May-04 03:33 UTC. Time now 2016-May-05 20:02 UTC.
Position N 22°09' E 113°50'.

Length 261 m; draft 12 m.

Type: Cargo ship. MMSI: 477627900.

Date/timePositionNaut miles runAvg speedWind from/ knotsBaromVisibWave heightAir tempDewpointWater temp
2016-May-04 03:33N 22°09' E 113°50'16 0.9
2016-May-03 10:13N 22°21' E 114°02'2 2.2
2016-May-03 09:18N 22°20' E 114°04'0 0.0
2016-May-03 08:30N 22°20' E 114°04'0 0.0
2016-May-03 06:30N 22°20' E 114°04'2 2.0
2016-May-03 05:33N 22°19' E 114°06'2 0.4
2016-May-03 00:22N 22°21' E 114°07'0 0.0
2016-May-02 23:22N 22°21' E 114°07'0 0.0
2016-May-02 20:28N 22°21' E 114°07'0 0.0
2016-May-02 19:33N 22°21' E 114°07'4 3.5
2016-May-02 18:33N 22°17' E 114°06'1110.2
2016-May-02 17:31N 22°09' E 114°13'1414.9
2016-May-02 16:33N 22°08' E 114°29'31114.8
2016-May-01 19:33N 22°32' E 120°04'1313.5
2016-May-01 18:33N 22°33' E 120°18'1 1.1
2016-May-01 17:15N 22°34' E 120°18'0 0.0
2016-May-01 16:33N 22°34' E 120°18'0 0.0
2016-May-01 15:33N 22°34' E 120°18'0 0.0
2016-May-01 14:33N 22°34' E 120°18'0 0.0
2016-May-01 13:33N 22°34' E 120°18'0 0.0
2016-May-01 11:33N 22°34' E 120°18'0 0.0
2016-May-01 10:03N 22°34' E 120°18'0 0.0
2016-May-01 09:31N 22°34' E 120°18'4 3.9
2016-May-01 08:33N 22°32' E 120°15'9 8.5
2016-May-01 07:33N 22°37' E 120°08'2 1.5
2016-May-01 06:33N 22°39' E 120°08'1211.6
2016-May-01 05:33N 22°48' E 120°01'49015.1
2016-Apr-29 21:05N 28°39' E 126°22'1418.8
2016-Apr-29 20:20N 28°46' E 126°36'52815.6
2016-Apr-28 10:33N 33°57' E 134°55'1616.2
2016-Apr-28 09:33N 34°13' E 134°57'1717.5
2016-Apr-28 08:33N 34°28' E 135°09'1312.5
2016-Apr-28 07:33N 34°40' E 135°15'0 0.2
2016-Apr-28 06:31N 34°39' E 135°15'0 0.0
2016-Apr-28 05:31N 34°39' E 135°15'0 0.0
2016-Apr-28 04:25N 34°39' E 135°15'0 0.0
2016-Apr-28 03:25N 34°39' E 135°15'0 0.0
2016-Apr-28 02:25N 34°39' E 135°15'0 0.0
2016-Apr-28 01:31N 34°39' E 135°15'0 0.0
2016-Apr-28 00:19N 34°39' E 135°15'0 0.0
2016-Apr-27 23:31N 34°39' E 135°15'1 0.9
2016-Apr-27 22:33N 34°39' E 135°16'10 9.5
2016-Apr-27 21:33N 34°30' E 135°11'1616.5
2016-Apr-27 20:33N 34°17' E 134°59'1211.9
2016-Apr-27 19:33N 34°05' E 134°59'1211.7
2016-Apr-27 18:33N 33°53' E 134°60'234 5.2
2016-Apr-25 21:24N 35°01' E 139°31'1618.9
2016-Apr-25 20:33N 35°11' E 139°46'1212.1
2016-Apr-25 19:33N 35°23' E 139°42'1212.2
2016-Apr-25 18:33N 35°34' E 139°49'3 2.5
2016-Apr-25 17:31N 35°36' E 139°47'0 0.0
2016-Apr-25 16:31N 35°36' E 139°47'0 0.0
2016-Apr-25 15:31N 35°36' E 139°47'0 0.0
2016-Apr-25 14:31N 35°36' E 139°47'0 0.0
2016-Apr-25 13:31N 35°36' E 139°47'0 0.0
2016-Apr-25 12:31N 35°36' E 139°47'0 0.0
2016-Apr-25 11:31N 35°36' E 139°47'0 0.0
2016-Apr-25 10:31N 35°36' E 139°47'0 0.0
2016-Apr-25 09:31N 35°36' E 139°47'0 0.0
2016-Apr-25 08:31N 35°36' E 139°47'0 0.0
2016-Apr-25 07:31N 35°36' E 139°47'0 0.0
2016-Apr-25 06:31N 35°36' E 139°47'0 0.0
2016-Apr-25 05:31N 35°36' E 139°47'0 0.0
2016-Apr-25 04:31N 35°36' E 139°47'0 0.4
2016-Apr-25 03:33N 35°36' E 139°47'9 9.2
2016-Apr-25 02:33N 35°27' E 139°49'1212.0
2016-Apr-25 01:33N 35°15' E 139°47'1110.7
2016-Apr-25 00:33N 35°04' E 139°45'1615.6
2016-Apr-24 23:33N 34°56' E 139°29'  

Dump ship's entire track history